Cuyuna, Minnesota
Current Conditions -  °F | °C
As of 12:34 AM on Saturday 25 Oct 2014 (Local Time) from KAIT Reporting Station
Clear Clear  
Wind Chill: 57°   Ceiling: Unl
Heat Index: 57°   Visibility: 10mi
Dew Point: 34°   Wind: 5mph
Humidity: 41%   Direction: 270°W
Pressure: 29.85"   Gusts: NA
Location:  46.4516°N, 93.8664°W
Report Text: KAIT 250534Z AUTO 27004KT 10SM CLR 14/01 A2985 RMK AO2
Loading
Personal Weather Stations






























Interactive Weather Map
Tropical Storm Tracking
New forecast layout! Learn more

10-Day Weather Forecast

Advertisements
Track Severe Weather on mobile